Time;durP1;ratioP1;P1;durP2;ratioP2;P2;SDS_P1;SDS_P2;PMS_P1;PMS_P2;Temp;Humidity;BMP_temperature;BMP_pressure;BME280_temperature;BME280_humidity;BME280_pressure;Samples;Min_cycle;Max_cycle;Signal;HPM_P1;HPM_P2
2022/02/06 00:09:43;;;;;;;9.3;15.8;;;;;;;1.1;73.6;98910;;;;
2022/02/06 00:20:49;;;;;;;9.3;15.8;;;;;;;1.1;73.1;98900;;;;
2022/02/06 00:31:54;;;;;;;9.3;15.8;;;;;;;1.1;72.3;98880;;;;
2022/02/06 00:41:41;;;;;;;6.3;10.4;;;;;;;1.1;71.9;98870;;;;
2022/02/06 00:52:52;;;;;;;6.3;10.4;;;;;;;1.1;71.7;98860;;;;
2022/02/06 01:03:41;;;;;;;6.3;10.4;;;;;;;1.1;71.4;98840;;;;
2022/02/06 01:13:52;;;;;;;5.5;11.9;;;;;;;1;71.1;98830;;;;
2022/02/06 01:23:50;;;;;;;5.5;11.9;;;;;;;1.1;70.8;98810;;;;
2022/02/06 01:33:47;;;;;;;5.5;11.9;;;;;;;1.1;70.8;98800;;;;
2022/02/06 01:43:46;;;;;;;4.9;8.5;;;;;;;1.5;69.7;98790;;;;
2022/02/06 02:03:48;;;;;;;4.9;8.5;;;;;;;1.9;68.4;98740;;;;
2022/02/06 02:13:56;;;;;;;4.9;8.5;;;;;;;2;67.6;98720;;;;
2022/02/06 02:25:08;;;;;;;4.9;8.5;;;;;;;2;67.5;98700;;;;
2022/02/06 02:46:05;;;;;;;3.6;7.5;;;;;;;1.9;67.1;98680;;;;
2022/02/06 02:55:54;;;;;;;3.6;7.5;;;;;;;2.1;66.6;98680;;;;
2022/02/06 03:06:42;;;;;;;3.6;7.5;;;;;;;2.2;66.3;98660;;;;
2022/02/06 03:16:48;;;;;;;3.7;6.6;;;;;;;2.2;67.1;98650;;;;
2022/02/06 03:27:41;;;;;;;3.7;6.6;;;;;;;2.2;67.2;98640;;;;
2022/02/06 03:37:41;;;;;;;3.2;7.4;;;;;;;2.4;67;98630;;;;
2022/02/06 03:48:47;;;;;;;3.2;7.4;;;;;;;2.4;67.3;98620;;;;
2022/02/06 03:59:41;;;;;;;3.2;7.4;;;;;;;2.4;67.7;98610;;;;
2022/02/06 04:10:45;;;;;;;3;6.3;;;;;;;2.4;67.8;98580;;;;
2022/02/06 04:20:41;;;;;;;3;6.3;;;;;;;2.5;67.7;98570;;;;
2022/02/06 04:30:41;;;;;;;3;6.3;;;;;;;2.6;67.4;98560;;;;
2022/02/06 04:41:56;;;;;;;3.1;6;;;;;;;2.7;67.6;98550;;;;
2022/02/06 04:52:09;;;;;;;3.1;6;;;;;;;2.7;67.6;98550;;;;
2022/02/06 05:14:16;;;;;;;2.8;5.5;;;;;;;2.9;68.3;98520;;;;
2022/02/06 05:22:56;;;;;;;2.8;5.5;;;;;;;3;68.7;98520;;;;
2022/02/06 05:32:57;;;;;;;2.8;5.5;;;;;;;2.9;68.9;98510;;;;
2022/02/06 05:43:41;;;;;;;2.6;4.9;;;;;;;2.8;69.3;98480;;;;
2022/02/06 05:54:41;;;;;;;2.6;4.9;;;;;;;2.7;69.8;98470;;;;
2022/02/06 06:04:41;;;;;;;2.6;4.9;;;;;;;2.7;69.7;98460;;;;
2022/02/06 06:14:44;;;;;;;2.6;5.4;;;;;;;2.7;69.6;98440;;;;
2022/02/06 06:25:44;;;;;;;2.6;5.4;;;;;;;2.7;69.7;98440;;;;
2022/02/06 06:36:42;;;;;;;2.6;5.4;;;;;;;2.7;69.5;98410;;;;
2022/02/06 06:46:41;;;;;;;2.5;5.9;;;;;;;2.8;69.2;98410;;;;
2022/02/06 06:56:48;;;;;;;2.5;5.9;;;;;;;2.9;68.5;98400;;;;
2022/02/06 07:06:41;;;;;;;3;7.5;;;;;;;3;68.3;98390;;;;
2022/02/06 07:16:41;;;;;;;3;7.5;;;;;;;3.1;67.9;98380;;;;
2022/02/06 07:27:46;;;;;;;3;7.5;;;;;;;3.2;68;98380;;;;
2022/02/06 07:37:41;;;;;;;2.7;4.7;;;;;;;3.5;67.5;98360;;;;
2022/02/06 07:47:44;;;;;;;2.7;4.7;;;;;;;3.7;67.3;98360;;;;
2022/02/06 07:58:41;;;;;;;2.7;4.7;;;;;;;3.9;66.9;98340;;;;
2022/02/06 08:08:42;;;;;;;3;5.3;;;;;;;3.9;67.4;98330;;;;
2022/02/06 08:19:43;;;;;;;3;5.3;;;;;;;4;67.1;98320;;;;
2022/02/06 08:29:45;;;;;;;3;5.3;;;;;;;4.1;67.3;98320;;;;
2022/02/06 08:39:41;;;;;;;2.7;4.9;;;;;;;4.2;66.8;98330;;;;
2022/02/06 08:49:41;;;;;;;2.7;4.9;;;;;;;4.3;67.1;98330;;;;
2022/02/06 08:59:42;;;;;;;2.7;4.9;;;;;;;4.3;66.9;98330;;;;
2022/02/06 09:10:41;;;;;;;3.3;8.3;;;;;;;4.4;66.4;98310;;;;
2022/02/06 09:20:41;;;;;;;3.3;8.3;;;;;;;4.8;64.9;98300;;;;
2022/02/06 09:31:42;;;;;;;3.3;8.3;;;;;;;5.1;63.5;98270;;;;
2022/02/06 09:41:41;;;;;;;3;6.9;;;;;;;5.4;63.4;98260;;;;
2022/02/06 09:52:41;;;;;;;3;6.9;;;;;;;5.4;63.5;98250;;;;
2022/02/06 10:02:47;;;;;;;3;6.9;;;;;;;5.3;63.7;98220;;;;
2022/02/06 10:12:42;;;;;;;2.8;5.3;;;;;;;5.3;64.5;98210;;;;
2022/02/06 10:23:47;;;;;;;2.8;5.3;;;;;;;5.2;66.5;98180;;;;
2022/02/06 10:34:41;;;;;;;2.8;5.3;;;;;;;5.5;65.6;98170;;;;
2022/02/06 10:44:41;;;;;;;3.1;5.6;;;;;;;5.5;64;98150;;;;
2022/02/06 10:55:42;;;;;;;3.1;5.6;;;;;;;5.5;63.2;98120;;;;
2022/02/06 11:05:48;;;;;;;3.1;5.6;;;;;;;5.8;62.7;98090;;;;
2022/02/06 11:15:44;;;;;;;4.5;8.8;;;;;;;6;61.6;98060;;;;
2022/02/06 11:26:41;;;;;;;4.5;8.8;;;;;;;6.1;61.7;98050;;;;
2022/02/06 11:47:42;;;;;;;3.1;5.4;;;;;;;5.6;64.4;98050;;;;
2022/02/06 11:57:42;;;;;;;3.1;5.4;;;;;;;5.4;67.5;98050;;;;
2022/02/06 12:08:41;;;;;;;3.1;6.1;;;;;;;5.1;70.3;98040;;;;
2022/02/06 12:18:42;;;;;;;3.1;6.1;;;;;;;5;71;98030;;;;
2022/02/06 12:29:44;;;;;;;3.1;6.1;;;;;;;5;70.7;98020;;;;
2022/02/06 12:40:42;;;;;;;3.1;5.7;;;;;;;4.9;71.6;98010;;;;
2022/02/06 12:50:42;;;;;;;3.1;5.7;;;;;;;5;70.6;97970;;;;
2022/02/06 13:01:43;;;;;;;3.1;5.7;;;;;;;5.3;69.6;97950;;;;
2022/02/06 13:11:43;;;;;;;2.9;6.4;;;;;;;5.4;68.4;97950;;;;
2022/02/06 13:21:53;;;;;;;2.9;6.4;;;;;;;5.6;67.6;97920;;;;
2022/02/06 13:31:55;;;;;;;2.9;6.4;;;;;;;5.6;66.8;97900;;;;
2022/02/06 13:42:42;;;;;;;2.2;4.6;;;;;;;5.6;67.3;97890;;;;
2022/02/06 13:52:44;;;;;;;2.2;4.6;;;;;;;5.8;66.7;97880;;;;
2022/02/06 14:02:42;;;;;;;2.2;4.6;;;;;;;5.5;67.2;97880;;;;
2022/02/06 14:13:42;;;;;;;2.8;5.5;;;;;;;5.1;68.5;97850;;;;
2022/02/06 14:23:42;;;;;;;2.8;5.5;;;;;;;5;68.7;97850;;;;
2022/02/06 14:33:44;;;;;;;2.8;5.5;;;;;;;5;69;97830;;;;
2022/02/06 14:43:42;;;;;;;3;5.4;;;;;;;4.9;69.2;97820;;;;
2022/02/06 14:53:42;;;;;;;3;5.4;;;;;;;5;68.8;97800;;;;
2022/02/06 15:04:42;;;;;;;3;5.4;;;;;;;5.1;68;97780;;;;
2022/02/06 15:14:42;;;;;;;3.3;5.4;;;;;;;5.2;67.1;97770;;;;
2022/02/06 15:25:42;;;;;;;3.3;5.4;;;;;;;5;66.8;97710;;;;
2022/02/06 15:36:48;;;;;;;3.7;6.5;;;;;;;5;66.6;97690;;;;
2022/02/06 15:47:42;;;;;;;3.7;6.5;;;;;;;5.2;65.7;97680;;;;
2022/02/06 15:58:42;;;;;;;3.7;6.5;;;;;;;5.2;65.2;97670;;;;
2022/02/06 16:09:42;;;;;;;4.1;6.7;;;;;;;5.3;65.1;97640;;;;
2022/02/06 16:19:42;;;;;;;4.1;6.7;;;;;;;5.3;65.5;97630;;;;
2022/02/06 16:30:42;;;;;;;4.1;6.7;;;;;;;5.3;65.9;97610;;;;
2022/02/06 16:40:42;;;;;;;3.5;6.9;;;;;;;5.4;66.3;97600;;;;
2022/02/06 16:50:42;;;;;;;3.5;6.9;;;;;;;5.5;66.4;97580;;;;
2022/02/06 17:00:42;;;;;;;3.5;6.9;;;;;;;5.5;66.3;97550;;;;
2022/02/06 17:10:42;;;;;;;4;9.7;;;;;;;5.6;65.9;97530;;;;
2022/02/06 17:20:42;;;;;;;4;9.7;;;;;;;5.7;65.1;97500;;;;
2022/02/06 17:31:42;;;;;;;4;9.7;;;;;;;5.9;64.3;97480;;;;
2022/02/06 17:41:42;;;;;;;4.6;7.4;;;;;;;6;63.6;97450;;;;
2022/02/06 17:51:42;;;;;;;4.6;7.4;;;;;;;6;63.8;97420;;;;
2022/02/06 18:01:42;;;;;;;4.6;7.4;;;;;;;6;64.1;97400;;;;
2022/02/06 18:12:42;;;;;;;3.6;5.8;;;;;;;6;64.7;97370;;;;
2022/02/06 18:22:42;;;;;;;3.6;5.8;;;;;;;6;64.9;97350;;;;
2022/02/06 18:32:42;;;;;;;3.6;5.8;;;;;;;6.1;64.9;97330;;;;
2022/02/06 18:43:42;;;;;;;2.6;4.4;;;;;;;6;65.2;97330;;;;
2022/02/06 18:54:42;;;;;;;2.6;4.4;;;;;;;6.1;64.3;97310;;;;
2022/02/06 19:04:42;;;;;;;2.6;4.4;;;;;;;6.2;64.1;97280;;;;
2022/02/06 19:14:42;;;;;;;3.3;5.1;;;;;;;6.2;63.7;97250;;;;
2022/02/06 19:24:42;;;;;;;3.3;5.1;;;;;;;6.2;63.3;97230;;;;
2022/02/06 19:34:46;;;;;;;3.3;5.1;;;;;;;6.1;63.6;97190;;;;
2022/02/06 19:44:43;;;;;;;1.8;3.9;;;;;;;6.1;63.7;97180;;;;
2022/02/06 19:55:42;;;;;;;1.8;3.9;;;;;;;6.1;64;97150;;;;
2022/02/06 20:06:42;;;;;;;1.8;3.3;;;;;;;6.3;63.8;97150;;;;
2022/02/06 20:16:42;;;;;;;1.8;3.3;;;;;;;6.3;64.1;97130;;;;
2022/02/06 20:26:42;;;;;;;1.8;3.3;;;;;;;6.2;64.8;97090;;;;
2022/02/06 20:37:42;;;;;;;1.9;3.2;;;;;;;5.9;66;97060;;;;
2022/02/06 20:47:43;;;;;;;1.9;3.2;;;;;;;5.8;66.8;97050;;;;
2022/02/06 20:58:42;;;;;;;1.9;3.2;;;;;;;5.7;66.8;97020;;;;
2022/02/06 21:09:42;;;;;;;1.4;3.2;;;;;;;6;65.9;97030;;;;
2022/02/06 21:20:42;;;;;;;1.4;3.2;;;;;;;6.2;65.6;97030;;;;
2022/02/06 21:30:42;;;;;;;1.4;3.2;;;;;;;6.1;68.1;97040;;;;
2022/02/06 21:41:44;;;;;;;1.2;2.8;;;;;;;5.6;72.6;97000;;;;
2022/02/06 21:51:42;;;;;;;1.2;2.8;;;;;;;5.3;74.2;97010;;;;
2022/02/06 22:01:42;;;;;;;1.2;2.8;;;;;;;5.1;75.5;97030;;;;
2022/02/06 22:23:56;;;;;;;1.3;3.7;;;;;;;5.1;75.8;96990;;;;
2022/02/06 22:34:42;;;;;;;0.9;2.1;;;;;;;5;75.2;96940;;;;
2022/02/06 22:45:42;;;;;;;0.9;2.1;;;;;;;5.1;74.4;96930;;;;
2022/02/06 22:55:45;;;;;;;0.9;2.1;;;;;;;5.2;73.9;96910;;;;
2022/02/06 23:06:43;;;;;;;0.9;2.1;;;;;;;5.3;72.7;96910;;;;
2022/02/06 23:17:42;;;;;;;0.9;2.1;;;;;;;5.4;71.5;96910;;;;
2022/02/06 23:28:42;;;;;;;0.9;2.1;;;;;;;5.5;70.9;96890;;;;
2022/02/06 23:38:43;;;;;;;0.8;2;;;;;;;5.5;70.5;96880;;;;
2022/02/06 23:49:46;;;;;;;0.8;2;;;;;;;5.5;70.1;96880;;;;
